Time;durP1;ratioP1;P1;durP2;ratioP2;P2;SDS_P1;SDS_P2;PMS_P1;PMS_P2;Temp;Humidity;BMP_temperature;BMP_pressure;BME280_temperature;BME280_humidity;BME280_pressure;Samples;Min_cycle;Max_cycle;Signal;HPM_P1;HPM_P2
2022/06/24 00:02:21;;;;;;;4.78;2.92;;;;;;;14.36;98.87;96861.09;4984633;28;20050;-66
2022/06/24 00:04:54;;;;;;;5.82;3.33;;;;;;;14.06;98.28;96821.69;4984265;28;20137;-67
2022/06/24 00:07:21;;;;;;;3.80;2.92;;;;;;;13.61;96.69;96779.50;4986268;28;20543;-66
2022/06/24 00:09:48;;;;;;;4.85;3.40;;;;;;;14.19;97.70;96853.53;4985923;28;20062;-66
2022/06/24 00:12:18;;;;;;;3.78;2.75;;;;;;;14.22;97.89;96863.88;4985452;28;20069;-66
2022/06/24 00:14:55;;;;;;;4.75;2.75;;;;;;;14.12;97.11;96861.88;4983817;28;20057;-67
2022/06/24 00:17:27;;;;;;;6.75;3.10;;;;;;;14.05;97.48;96865.47;4985541;28;20505;-66
2022/06/24 00:20:03;;;;;;;4.53;3.28;;;;;;;14.01;98.49;96864.66;4985226;28;20054;-67
2022/06/24 00:22:31;;;;;;;14.00;5.88;;;;;;;13.88;100.00;96843.19;4984521;28;20065;-66
2022/06/24 00:25:25;;;;;;;12.73;7.07;;;;;;;14.05;100.00;96867.47;4985312;28;20504;-66
2022/06/24 00:28:03;;;;;;;8.57;4.50;;;;;;;13.90;100.00;96857.47;4983091;28;20057;-66
2022/06/24 00:30:49;;;;;;;7.65;5.18;;;;;;;13.80;100.00;96850.72;4983747;28;20077;-67
2022/06/24 00:33:17;;;;;;;5.57;3.35;;;;;;;13.73;100.00;96847.13;4985158;28;20054;-66
2022/06/24 00:35:47;;;;;;;5.28;3.00;;;;;;;13.46;100.00;96811.31;4985496;28;20093;-67
2022/06/24 00:38:31;;;;;;;10.57;3.90;;;;;;;13.76;100.00;96863.03;4985034;28;20433;-67
2022/06/24 00:41:07;;;;;;;6.32;3.03;;;;;;;13.63;99.57;96852.28;4985195;28;20046;-67
2022/06/24 00:43:37;;;;;;;5.25;3.25;;;;;;;12.94;100.00;96745.19;4983706;28;20520;-67
2022/06/24 00:46:22;;;;;;;4.70;2.85;;;;;;;13.52;99.18;96865.38;4985146;28;20062;-67
2022/06/24 00:48:51;;;;;;;5.78;3.13;;;;;;;13.38;100.00;96854.22;4985324;28;20497;-67
2022/06/24 00:51:20;;;;;;;4.68;3.13;;;;;;;13.48;100.00;96859.00;4985107;28;20054;-67
2022/06/24 00:53:52;;;;;;;5.95;2.67;;;;;;;13.51;100.00;96852.63;4983424;28;20077;-68
2022/06/24 00:56:22;;;;;;;5.63;2.75;;;;;;;13.66;100.00;96848.72;4983661;28;20057;-68
2022/06/24 00:59:00;;;;;;;7.75;3.25;;;;;;;13.26;100.00;96806.50;4984917;28;20054;-67
2022/06/24 01:01:28;;;;;;;6.10;3.17;;;;;;;13.49;100.00;96843.91;4984777;28;20054;-67
2022/06/24 01:03:58;;;;;;;3.70;2.88;;;;;;;12.94;100.00;96823.03;4985066;28;20556;-67
2022/06/24 01:06:25;;;;;;;3.80;2.97;;;;;;;13.16;100.00;96813.63;4984710;28;20050;-67
2022/06/24 01:08:53;;;;;;;5.57;3.58;;;;;;;13.50;100.00;96842.72;4984958;28;20062;-68
2022/06/24 01:11:49;;;;;;;5.53;3.05;;;;;;;13.49;100.00;96843.91;4983670;28;20093;-67
2022/06/24 01:14:15;;;;;;;4.68;2.28;;;;;;;13.06;100.00;96782.97;4978982;28;20062;-67
2022/06/24 01:16:42;;;;;;;8.10;2.95;;;;;;;13.51;100.00;96847.06;4984927;28;20054;-67
2022/06/24 01:19:12;;;;;;;5.95;3.25;;;;;;;13.07;100.00;96815.94;4984719;28;20101;-67
2022/06/24 01:21:49;;;;;;;4.82;2.63;;;;;;;13.01;100.00;96789.72;4984609;28;20058;-67
2022/06/24 01:24:18;;;;;;;4.63;2.72;;;;;;;13.14;99.85;96821.53;4984956;28;20061;-67
2022/06/24 01:26:58;;;;;;;14.13;4.05;;;;;;;13.18;100.00;96818.78;4984477;28;20061;-67
2022/06/24 01:29:26;;;;;;;3.15;2.13;;;;;;;13.26;99.99;96835.09;4983183;28;20061;-68
2022/06/24 01:31:54;;;;;;;4.28;2.90;;;;;;;13.04;98.84;96800.06;4984885;28;20062;-67
2022/06/24 01:34:23;;;;;;;3.60;2.35;;;;;;;13.33;98.10;96846.25;4986848;28;20062;-67
2022/06/24 01:36:50;;;;;;;6.88;2.72;;;;;;;13.29;98.62;96862.13;4987046;28;20080;-67
2022/06/24 01:39:18;;;;;;;5.80;2.80;;;;;;;12.89;99.34;96803.94;4988426;28;20652;-67
2022/06/24 01:41:45;;;;;;;7.93;3.13;;;;;;;12.57;99.47;96769.66;4986725;28;20050;-67
2022/06/24 01:44:12;;;;;;;4.68;3.13;;;;;;;13.24;100.00;96868.09;4988441;28;20520;-67
2022/06/24 01:46:38;;;;;;;5.00;3.40;;;;;;;12.86;99.95;96815.84;4986977;28;20054;-67
2022/06/24 01:49:05;;;;;;;4.47;2.53;;;;;;;13.06;100.00;96869.97;4988507;28;20050;-67
2022/06/24 01:51:33;;;;;;;5.57;3.13;;;;;;;12.98;100.00;96854.41;4987988;28;20054;-66
2022/06/24 01:54:01;;;;;;;5.53;3.00;;;;;;;12.80;100.00;96839.66;4986486;28;20532;-67
2022/06/24 01:56:28;;;;;;;10.43;2.85;;;;;;;12.88;100.00;96869.06;4988058;28;20050;-67
2022/06/24 01:58:55;;;;;;;11.48;7.32;;;;;;;12.80;99.67;96867.44;4987808;28;20054;-67
2022/06/24 02:01:21;;;;;;;26.40;18.08;;;;;;;12.82;100.00;96867.06;4987762;28;20065;-68
2022/06/24 02:03:48;;;;;;;58.22;36.30;;;;;;;11.85;100.00;96713.31;4986136;28;20137;-67
2022/06/24 02:06:17;;;;;;;42.53;24.17;;;;;;;11.93;100.00;96728.84;4986373;28;20053;-67
2022/06/24 02:08:44;;;;;;;27.35;16.50;;;;;;;12.74;100.00;96843.19;4987530;28;20133;-67
2022/06/24 02:14:03;;;;;;;10.73;5.65;;;;;;;12.46;100.00;96779.91;4987495;28;20065;-67
2022/06/24 02:16:32;;;;;;;10.15;4.57;;;;;;;13.00;100.00;96854.88;4987361;28;20057;-67
2022/06/24 02:18:59;;;;;;;5.20;3.20;;;;;;;12.66;99.36;96789.53;4986990;28;20043;-68
2022/06/24 02:21:26;;;;;;;3.35;2.60;;;;;;;13.06;99.91;96847.72;4986937;28;20081;-67
2022/06/24 02:23:53;;;;;;;7.18;3.53;;;;;;;13.11;99.87;96839.03;4986113;28;20058;-67
2022/06/24 02:26:21;;;;;;;6.63;2.50;;;;;;;12.35;98.21;96701.28;4987342;28;20062;-66
2022/06/24 02:28:47;;;;;;;4.97;3.05;;;;;;;13.04;98.58;96838.97;4986993;28;20520;-67
2022/06/24 02:31:14;;;;;;;6.28;4.25;;;;;;;13.02;98.58;96835.00;4987234;28;20073;-67
2022/06/24 02:33:41;;;;;;;19.25;8.40;;;;;;;12.98;98.59;96834.97;4987519;28;20086;-66
2022/06/24 02:36:08;;;;;;;10.00;6.68;;;;;;;12.02;99.64;96732.06;4986899;28;20453;-68
2022/06/24 02:38:35;;;;;;;10.50;4.93;;;;;;;12.81;100.00;96830.13;4985973;28;20054;-66
2022/06/24 02:41:09;;;;;;;6.80;3.45;;;;;;;11.11;100.00;96537.25;4985610;28;20058;-67
2022/06/24 02:43:39;;;;;;;4.13;2.88;;;;;;;12.87;99.73;96817.44;4986961;28;20050;-67
2022/06/24 02:46:16;;;;;;;6.82;2.58;;;;;;;12.93;99.55;96821.44;4985209;28;20064;-67
2022/06/24 02:48:43;;;;;;;9.98;2.80;;;;;;;11.64;98.55;96627.16;4987238;28;20058;-67
2022/06/24 02:51:12;;;;;;;9.68;3.65;;;;;;;13.03;98.35;96820.72;4985046;28;20422;-66
2022/06/24 02:53:39;;;;;;;6.47;4.57;;;;;;;13.16;97.54;96824.75;4987068;28;20058;-67
2022/06/24 02:56:08;;;;;;;10.63;5.40;;;;;;;13.09;97.72;96801.66;4986682;28;20065;-67
2022/06/24 02:58:36;;;;;;;7.28;4.70;;;;;;;13.26;97.01;96829.53;4986764;28;20054;-66
2022/06/24 03:01:03;;;;;;;9.23;4.47;;;;;;;13.24;97.34;96820.78;4986661;28;20066;-66
2022/06/24 03:03:31;;;;;;;4.15;3.65;;;;;;;13.32;96.87;96811.28;4985313;28;20429;-65
2022/06/24 03:05:58;;;;;;;9.18;3.55;;;;;;;13.39;94.78;96833.53;4986577;28;20050;-66
2022/06/24 03:08:26;;;;;;;5.20;3.33;;;;;;;13.48;93.78;96831.16;4986535;28;20520;-65
2022/06/24 03:10:54;;;;;;;5.30;2.60;;;;;;;13.19;94.73;96779.44;4986627;28;20058;-67
2022/06/24 03:13:21;;;;;;;3.97;2.78;;;;;;;13.62;94.97;96825.63;4985259;28;20050;-66
2022/06/24 03:15:48;;;;;;;4.65;2.72;;;;;;;13.00;94.47;96726.97;4986070;28;20058;-66
2022/06/24 03:18:16;;;;;;;7.15;2.63;;;;;;;13.95;93.16;96834.81;4986034;28;20053;-66
2022/06/24 03:20:44;;;;;;;7.32;2.40;;;;;;;14.07;91.70;96834.44;4985123;28;20068;-67
2022/06/24 03:23:13;;;;;;;5.00;2.42;;;;;;;13.36;90.39;96728.59;4986334;28;20053;-67
2022/06/24 03:25:41;;;;;;;9.77;2.78;;;;;;;14.12;91.80;96836.81;4986531;28;20164;-67
2022/06/24 03:28:08;;;;;;;28.33;7.65;;;;;;;13.79;94.24;96862.25;4986082;28;20050;-67
2022/06/24 03:30:35;;;;;;;4.95;3.13;;;;;;;13.62;93.61;96847.88;4986146;28;20061;-66
2022/06/24 03:33:02;;;;;;;7.22;3.90;;;;;;;13.20;97.48;96786.59;4985904;28;20082;-66
2022/06/24 03:35:29;;;;;;;18.38;5.60;;;;;;;13.65;97.83;96836.00;4984325;28;20061;-67
2022/06/24 03:37:56;;;;;;;8.10;4.13;;;;;;;13.94;96.41;96830.44;4984831;28;20058;-67
2022/06/24 03:40:23;;;;;;;6.82;3.72;;;;;;;13.97;93.53;96824.09;4985864;28;20061;-67
2022/06/24 03:42:50;;;;;;;11.93;3.40;;;;;;;14.27;92.54;96827.28;4985930;28;20069;-66
2022/06/24 03:45:17;;;;;;;7.68;3.10;;;;;;;14.40;91.62;96822.91;4986052;28;20058;-66
2022/06/24 03:47:44;;;;;;;6.80;3.25;;;;;;;14.15;89.76;96760.78;4985818;28;20086;-66
2022/06/24 03:50:11;;;;;;;4.38;3.30;;;;;;;14.77;88.88;96823.19;4986187;28;20074;-66
2022/06/24 03:52:38;;;;;;;5.45;3.65;;;;;;;14.37;88.71;96760.38;4985729;28;20062;-67
2022/06/24 03:55:05;;;;;;;9.98;3.75;;;;;;;14.86;89.57;96816.00;4986089;28;20054;-66
2022/06/24 03:57:31;;;;;;;6.75;3.17;;;;;;;14.19;90.05;96697.53;4984988;28;20131;-67
2022/06/24 03:59:58;;;;;;;5.40;2.70;;;;;;;14.57;89.92;96766.31;4985828;28;20064;-66
2022/06/24 04:02:25;;;;;;;4.15;2.92;;;;;;;14.55;91.76;96805.75;4985364;28;20256;-66
2022/06/24 04:04:51;;;;;;;6.05;3.30;;;;;;;15.12;91.05;96834.25;4985885;28;20054;-66
2022/06/24 04:07:18;;;;;;;3.47;3.00;;;;;;;14.63;89.44;96731.25;4984264;28;20124;-65
2022/06/24 04:09:45;;;;;;;5.05;3.10;;;;;;;15.33;90.15;96833.34;4985534;28;20069;-66
2022/06/24 04:12:12;;;;;;;6.53;2.75;;;;;;;14.82;89.40;96764.22;4985200;28;20056;-66
2022/06/24 04:17:25;;;;;;;4.57;2.88;;;;;;;15.59;87.47;96853.19;4985603;28;20046;-65
2022/06/24 04:19:53;;;;;;;4.07;3.13;;;;;;;15.72;85.75;96843.13;4985590;28;20061;-65
2022/06/24 04:22:20;;;;;;;5.03;3.03;;;;;;;15.69;81.92;96818.00;4983418;28;20061;-65
2022/06/24 04:24:47;;;;;;;4.85;2.85;;;;;;;15.77;81.12;96806.41;4985494;28;20788;-66
2022/06/24 04:27:14;;;;;;;4.53;2.70;;;;;;;16.03;79.57;96822.56;4985324;28;20058;-68
2022/06/24 04:29:41;;;;;;;2.92;2.40;;;;;;;15.89;76.58;96783.56;4983743;28;20109;-66
2022/06/24 04:32:08;;;;;;;4.72;2.70;;;;;;;16.46;77.48;96823.81;4985454;28;20058;-66
2022/06/24 04:34:38;;;;;;;6.85;3.03;;;;;;;16.15;78.34;96768.16;4984980;28;20120;-68
2022/06/24 04:37:06;;;;;;;4.30;3.00;;;;;;;16.28;77.24;96766.44;4983458;28;20340;-67
2022/06/24 04:39:33;;;;;;;3.65;2.95;;;;;;;16.93;77.43;96846.50;4985425;28;20062;-66
2022/06/24 04:42:00;;;;;;;4.65;2.67;;;;;;;17.11;77.76;96838.69;4985477;28;20057;-67
2022/06/24 04:44:27;;;;;;;7.43;3.10;;;;;;;17.16;77.36;96844.66;4985194;28;20062;-67
2022/06/24 04:46:53;;;;;;;3.08;2.72;;;;;;;17.30;77.91;96838.88;4985536;28;20062;-66
2022/06/24 04:49:20;;;;;;;6.68;2.83;;;;;;;16.63;77.72;96716.56;4983667;28;20062;-67
2022/06/24 04:51:47;;;;;;;4.38;3.00;;;;;;;17.53;77.61;96829.81;4983780;28;20054;-67
2022/06/24 04:54:14;;;;;;;7.72;3.33;;;;;;;17.65;78.44;96823.63;4984684;28;20061;-65
2022/06/24 04:56:40;;;;;;;4.65;2.92;;;;;;;17.80;79.30;96827.78;4984888;28;20081;-66
2022/06/24 04:59:07;;;;;;;3.33;2.92;;;;;;;17.69;79.57;96771.94;4984767;28;20058;-66
2022/06/24 05:01:34;;;;;;;3.63;3.10;;;;;;;17.84;79.64;96778.91;4984624;28;20062;-65
2022/06/24 05:04:01;;;;;;;3.40;2.78;;;;;;;18.10;77.58;96780.06;4984795;28;20452;-65
2022/06/24 05:06:28;;;;;;;4.70;3.10;;;;;;;16.79;74.99;96536.94;4983185;28;20058;-66
2022/06/24 05:08:55;;;;;;;9.38;4.25;;;;;;;18.84;73.62;96807.63;4988269;28;20054;-67
2022/06/24 05:11:21;;;;;;;26.88;14.73;;;;;;;18.78;72.17;96792.50;4988670;28;20120;-65
2022/06/24 05:13:48;;;;;;;7.85;4.30;;;;;;;19.11;72.23;96827.94;4988690;28;20054;-66
2022/06/24 05:16:15;;;;;;;3.67;3.33;;;;;;;19.21;71.65;96798.06;4988699;28;20147;-67
2022/06/24 05:19:02;;;;;;;3.60;2.30;;;;;;;19.60;71.80;96823.34;4988353;28;20104;-66
2022/06/24 05:21:29;;;;;;;4.40;2.50;;;;;;;19.73;73.89;96851.59;4988466;28;20231;-66
2022/06/24 05:23:55;;;;;;;5.93;2.38;;;;;;;19.93;73.41;96810.16;4988626;28;20050;-67
2022/06/24 05:26:22;;;;;;;5.03;2.67;;;;;;;19.81;69.65;96791.16;4987505;28;20050;-67
2022/06/24 05:28:49;;;;;;;9.98;3.15;;;;;;;20.22;68.38;96822.34;4988447;28;20054;-67
2022/06/24 05:31:16;;;;;;;6.80;3.78;;;;;;;20.38;68.26;96827.97;4988089;28;20058;-65
2022/06/24 05:33:43;;;;;;;8.98;4.25;;;;;;;20.49;68.85;96825.69;4987943;28;20093;-65
2022/06/24 05:36:09;;;;;;;8.73;3.10;;;;;;;19.92;67.59;96702.53;4987723;28;20062;-65
2022/06/24 05:38:36;;;;;;;5.38;3.17;;;;;;;20.94;68.07;96834.97;4988214;28;20066;-66
2022/06/24 05:41:09;;;;;;;4.37;3.23;;;;;;;20.55;68.02;96756.38;4986894;28;20054;-65
2022/06/24 05:43:35;;;;;;;5.07;3.10;;;;;;;21.13;67.89;96834.06;4988393;28;20062;-66
2022/06/24 05:46:02;;;;;;;4.68;2.80;;;;;;;21.19;67.15;96829.47;4986420;28;20062;-67
2022/06/24 05:48:30;;;;;;;3.70;3.08;;;;;;;20.99;67.99;96775.31;4984175;28;20683;-62
2022/06/24 05:50:57;;;;;;;4.25;2.83;;;;;;;20.84;67.73;96740.28;4985675;28;20054;-64
2022/06/24 05:56:09;;;;;;;5.57;3.17;;;;;;;21.56;67.74;96825.19;4986472;28;20054;-66
2022/06/24 05:58:35;;;;;;;6.38;3.03;;;;;;;21.85;65.84;96863.38;4972676;28;20050;-61
2022/06/24 06:01:11;;;;;;;5.20;3.75;;;;;;;22.02;66.55;96824.59;4986405;28;20416;-70
2022/06/24 06:03:38;;;;;;;4.15;2.97;;;;;;;22.07;66.35;96829.66;4987147;28;20057;-64
2022/06/24 06:06:07;;;;;;;4.15;3.25;;;;;;;21.98;65.82;96830.34;4978587;28;20038;-61
2022/06/24 06:08:35;;;;;;;3.88;2.83;;;;;;;22.19;64.08;96837.34;4984348;28;20050;-63
2022/06/24 06:11:15;;;;;;;3.83;3.03;;;;;;;22.33;63.74;96834.88;4987664;28;20054;-64
2022/06/24 06:13:43;;;;;;;6.20;3.22;;;;;;;22.57;63.10;96828.88;4985092;28;20050;-63
2022/06/24 06:16:10;;;;;;;4.18;3.50;;;;;;;22.57;63.63;96834.53;4983155;28;20050;-63
2022/06/24 06:18:38;;;;;;;6.72;3.35;;;;;;;22.18;64.27;96833.72;4985145;28;20061;-62
2022/06/24 06:21:09;;;;;;;6.10;3.35;;;;;;;22.43;64.22;96822.44;4986803;28;20046;-59
2022/06/24 06:23:38;;;;;;;4.65;3.45;;;;;;;22.65;63.73;96827.41;4984744;28;20524;-61
2022/06/24 06:26:06;;;;;;;3.50;3.20;;;;;;;22.95;62.07;96829.59;4982407;28;20164;-60
2022/06/24 06:28:34;;;;;;;6.97;3.33;;;;;;;23.11;62.01;96821.72;4977583;28;20062;-60
2022/06/24 06:31:01;;;;;;;4.82;2.83;;;;;;;23.43;58.99;96817.75;4981733;28;20074;-64
2022/06/24 06:33:31;;;;;;;3.15;2.78;;;;;;;23.65;59.13;96815.69;4968647;28;20196;-62
2022/06/24 06:36:16;;;;;;;3.65;3.33;;;;;;;23.97;58.21;96826.63;4980124;28;20068;-62
2022/06/24 06:38:43;;;;;;;6.78;3.10;;;;;;;23.72;58.90;96821.09;4986493;28;20062;-62
2022/06/24 06:41:19;;;;;;;6.68;4.05;;;;;;;23.68;61.58;96817.59;4985640;28;20054;-60
2022/06/24 06:43:46;;;;;;;4.97;3.35;;;;;;;23.56;60.75;96750.59;4985052;28;20073;-61
2022/06/24 06:46:13;;;;;;;6.25;3.60;;;;;;;24.33;59.44;96815.44;4984168;28;20054;-59
2022/06/24 06:48:40;;;;;;;5.00;3.78;;;;;;;24.48;59.11;96816.47;4984682;28;20137;-63
2022/06/24 06:51:07;;;;;;;5.68;3.67;;;;;;;24.67;57.50;96818.13;4984761;28;20068;-67
2022/06/24 06:53:34;;;;;;;4.13;3.10;;;;;;;24.57;57.34;96773.97;4985044;28;20137;-62
2022/06/24 06:56:01;;;;;;;3.88;3.30;;;;;;;24.88;57.04;96817.19;4990116;28;20065;-67
2022/06/24 06:58:28;;;;;;;6.32;3.60;;;;;;;24.98;56.57;96810.28;4965049;28;20102;-61
2022/06/24 07:00:55;;;;;;;4.93;3.50;;;;;;;24.92;56.80;96812.19;4966930;28;20062;-61
2022/06/24 07:03:22;;;;;;;4.88;3.42;;;;;;;25.01;57.42;96814.22;4966673;28;20526;-60
2022/06/24 07:05:49;;;;;;;6.35;3.90;;;;;;;24.99;56.77;96794.84;4969567;28;20440;-62
2022/06/24 07:08:16;;;;;;;7.25;4.00;;;;;;;24.95;56.04;96821.78;4982761;28;20061;-61
2022/06/24 07:10:44;;;;;;;3.88;3.53;;;;;;;24.70;55.67;96735.00;4983070;28;20054;-64
2022/06/24 07:13:12;;;;;;;6.35;4.05;;;;;;;25.24;54.72;96816.44;4984326;28;20540;-64
2022/06/24 07:15:39;;;;;;;8.20;3.92;;;;;;;25.40;52.57;96823.88;4980321;28;20058;-62
2022/06/24 07:18:06;;;;;;;5.93;3.65;;;;;;;25.27;49.25;96787.94;4968585;28;20538;-70
2022/06/24 07:20:33;;;;;;;8.43;3.85;;;;;;;25.15;49.33;96752.00;4987483;28;20053;-62
2022/06/24 07:23:00;;;;;;;3.92;2.97;;;;;;;25.34;49.59;96823.69;4968913;28;20130;-63
2022/06/24 07:25:27;;;;;;;3.30;3.00;;;;;;;25.64;48.83;96821.97;4985186;28;20051;-62
2022/06/24 07:27:54;;;;;;;3.45;2.95;;;;;;;25.54;48.09;96730.41;4985644;28;20437;-64
2022/06/24 07:30:21;;;;;;;3.78;3.00;;;;;;;26.15;47.11;96803.72;4985580;28;20066;-64
2022/06/24 07:32:47;;;;;;;4.50;3.05;;;;;;;26.29;46.79;96748.25;4984325;28;20065;-64
2022/06/24 07:35:14;;;;;;;3.70;3.40;;;;;;;27.20;45.28;96811.81;4985604;28;20062;-63
2022/06/24 07:38:01;;;;;;;6.45;2.88;;;;;;;27.19;40.98;96744.06;4985488;28;20077;-64
2022/06/24 07:40:28;;;;;;;3.60;2.80;;;;;;;26.90;37.78;96815.84;4985533;28;20437;-63
2022/06/24 07:42:54;;;;;;;3.72;2.70;;;;;;;25.16;39.20;96577.81;4971143;28;20486;-63
2022/06/24 07:45:21;;;;;;;6.35;3.60;;;;;;;26.28;41.09;96804.31;4966401;28;20067;-63
2022/06/24 07:47:48;;;;;;;3.28;2.90;;;;;;;27.13;41.86;96805.69;4964802;28;20081;-64
2022/06/24 07:50:15;;;;;;;7.57;2.90;;;;;;;27.82;38.58;96801.16;4964949;28;20058;-64
2022/06/24 07:52:42;;;;;;;3.35;3.15;;;;;;;26.99;39.70;96778.00;4965526;28;20227;-64
2022/06/24 07:57:53;;;;;;;4.55;3.15;;;;;;;27.26;39.96;96693.28;4965467;28;20135;-63
2022/06/24 08:00:20;;;;;;;5.20;3.13;;;;;;;27.23;40.21;96741.78;4965500;28;20047;-64
2022/06/24 08:02:47;;;;;;;4.72;4.15;;;;;;;27.85;37.33;96777.38;4964350;28;20058;-64
2022/06/24 08:05:15;;;;;;;3.55;3.22;;;;;;;28.21;36.25;96786.81;4965836;28;20600;-63
2022/06/24 08:07:43;;;;;;;3.22;3.03;;;;;;;28.17;35.60;96722.28;4965285;28;20485;-64
2022/06/24 08:10:11;;;;;;;4.22;3.78;;;;;;;29.01;35.22;96793.50;4965520;28;20069;-62
2022/06/24 08:12:38;;;;;;;6.55;3.03;;;;;;;29.33;34.79;96786.69;4965386;28;20141;-63
2022/06/24 08:15:06;;;;;;;3.97;3.00;;;;;;;28.20;33.60;96548.81;4964844;28;20069;-64
2022/06/24 08:17:32;;;;;;;3.33;3.00;;;;;;;29.57;33.70;96777.84;4964596;28;20437;-63
2022/06/24 08:19:59;;;;;;;3.63;3.33;;;;;;;29.41;32.97;96741.34;4965724;28;20061;-63
2022/06/24 08:22:26;;;;;;;4.50;3.13;;;;;;;29.19;33.49;96781.06;4964073;28;20058;-63
2022/06/24 08:24:52;;;;;;;3.20;2.75;;;;;;;29.19;34.66;96786.75;4965824;28;20055;-64
2022/06/24 08:27:39;;;;;;;5.50;2.95;;;;;;;29.24;36.68;96774.63;4965722;28;20059;-63
2022/06/24 08:30:06;;;;;;;14.13;5.40;;;;;;;29.40;35.44;96779.75;4967827;28;20050;-62
2022/06/24 08:32:33;;;;;;;3.70;3.25;;;;;;;29.17;35.28;96783.59;4983307;28;20496;-66
2022/06/24 08:35:00;;;;;;;5.03;3.15;;;;;;;29.41;35.76;96775.59;4980609;28;20062;-62
2022/06/24 08:37:47;;;;;;;3.70;3.40;;;;;;;28.96;35.89;96687.91;4982497;28;20464;-64
2022/06/24 08:40:15;;;;;;;3.75;3.05;;;;;;;29.08;35.85;96775.19;4984123;28;20080;-68
2022/06/24 08:42:44;;;;;;;5.93;3.65;;;;;;;29.16;37.00;96770.63;4982742;28;20120;-63
2022/06/24 08:45:14;;;;;;;5.60;3.13;;;;;;;29.46;36.29;96778.53;4976904;28;20065;-61
2022/06/24 08:47:42;;;;;;;5.15;3.20;;;;;;;29.32;35.17;96722.31;4976342;28;20051;-66
2022/06/24 08:50:09;;;;;;;4.68;3.38;;;;;;;28.54;34.22;96661.94;4980380;28;20813;-66
2022/06/24 08:52:36;;;;;;;3.75;3.55;;;;;;;29.13;35.08;96732.47;4981594;28;20054;-62
2022/06/24 08:55:18;;;;;;;3.75;3.03;;;;;;;29.70;34.92;96772.59;4978409;28;20065;-61
2022/06/24 08:57:46;;;;;;;2.95;2.75;;;;;;;29.28;34.13;96698.13;4981940;28;20382;-66
2022/06/24 09:00:14;;;;;;;3.30;3.10;;;;;;;29.92;34.28;96749.94;4982546;28;20054;-62
2022/06/24 09:02:41;;;;;;;3.50;3.30;;;;;;;30.05;33.89;96756.00;4984005;28;20050;-63
2022/06/24 09:05:13;;;;;;;8.10;5.47;;;;;;;29.58;34.43;96676.63;4984641;28;20078;-63
2022/06/24 09:07:39;;;;;;;4.47;4.07;;;;;;;29.77;34.06;96774.97;4983870;28;20101;-63
2022/06/24 09:10:11;;;;;;;6.03;3.70;;;;;;;29.26;34.77;96723.56;4982832;28;20058;-62
2022/06/24 09:12:40;;;;;;;5.63;4.03;;;;;;;29.35;35.37;96769.06;4984185;28;20054;-63
2022/06/24 09:15:10;;;;;;;4.68;3.72;;;;;;;29.11;34.48;96762.78;4984334;28;20444;-62
2022/06/24 09:17:38;;;;;;;3.35;3.15;;;;;;;29.30;34.99;96772.63;4984061;28;20054;-62
2022/06/24 09:20:09;;;;;;;3.55;3.25;;;;;;;29.53;34.60;96751.59;4984342;28;20485;-62
2022/06/24 09:23:10;;;;;;;11.25;6.20;;;;;;;29.76;35.06;96773.41;4982682;28;20054;-62
2022/06/24 09:25:54;;;;;;;3.55;3.17;;;;;;;30.26;34.48;96760.38;4984181;28;20050;-63
2022/06/24 09:28:23;;;;;;;4.88;3.25;;;;;;;30.67;33.96;96746.59;4984195;28;20509;-63
2022/06/24 09:30:58;;;;;;;5.07;3.60;;;;;;;31.15;33.10;96749.47;4983700;28;20054;-64
2022/06/24 09:33:25;;;;;;;2.90;2.75;;;;;;;30.54;32.41;96641.25;4983028;28;20073;-64
2022/06/24 09:36:01;;;;;;;4.47;3.17;;;;;;;30.88;32.59;96748.06;4982599;28;20062;-63
2022/06/24 09:38:29;;;;;;;4.78;3.60;;;;;;;31.22;32.52;96726.88;4984596;28;20109;-61
2022/06/24 09:41:04;;;;;;;4.43;3.70;;;;;;;31.23;32.08;96719.06;4984019;28;20061;-61
2022/06/24 09:43:31;;;;;;;5.78;4.18;;;;;;;30.57;31.69;96710.94;4982735;28;20046;-62
2022/06/24 09:46:00;;;;;;;4.15;3.85;;;;;;;30.82;32.38;96750.91;4982583;28;20050;-61
2022/06/24 09:48:37;;;;;;;3.95;3.63;;;;;;;30.84;32.35;96748.31;4984349;28;20061;-61
2022/06/24 09:51:06;;;;;;;3.78;3.58;;;;;;;30.91;31.95;96747.84;4983895;28;20157;-60
2022/06/24 09:53:39;;;;;;;4.32;4.03;;;;;;;29.11;33.23;96598.09;4984448;28;20061;-60
2022/06/24 09:56:08;;;;;;;4.20;3.90;;;;;;;28.77;34.41;96755.84;4986915;28;20935;-60
2022/06/24 09:58:38;;;;;;;4.68;3.22;;;;;;;29.03;34.39;96704.56;4987647;28;20076;-61
2022/06/24 10:01:06;;;;;;;3.42;3.13;;;;;;;29.02;34.25;96714.41;4986065;28;20441;-62
2022/06/24 10:03:35;;;;;;;4.75;3.05;;;;;;;29.02;34.37;96737.25;4987516;28;20062;-59
2022/06/24 10:06:10;;;;;;;4.03;3.72;;;;;;;29.43;34.12;96744.50;4987374;28;20066;-60
2022/06/24 10:08:37;;;;;;;3.50;3.20;;;;;;;29.51;33.78;96722.78;4987490;28;20526;-60
2022/06/24 10:11:26;;;;;;;4.97;3.60;;;;;;;30.17;33.74;96740.53;4985942;28;20054;-61
2022/06/24 10:13:53;;;;;;;4.75;4.05;;;;;;;30.32;33.36;96755.47;4985417;28;20046;-60
2022/06/24 10:16:21;;;;;;;3.63;3.33;;;;;;;30.12;33.20;96706.97;4987362;28;20054;-59
2022/06/24 10:18:50;;;;;;;5.00;3.50;;;;;;;30.52;32.46;96748.88;4981866;28;20082;-60
2022/06/24 10:21:18;;;;;;;4.43;3.42;;;;;;;30.26;32.18;96751.81;4987527;28;20442;-62
2022/06/24 10:23:48;;;;;;;3.83;3.58;;;;;;;30.05;32.50;96738.88;4985813;28;20050;-60
2022/06/24 10:26:29;;;;;;;3.88;3.58;;;;;;;30.24;32.20;96745.81;4985933;28;20050;-63
2022/06/24 10:28:59;;;;;;;4.00;3.30;;;;;;;30.56;32.38;96737.97;4985780;28;20060;-59
2022/06/24 10:31:44;;;;;;;4.20;3.47;;;;;;;30.63;32.17;96732.56;4986864;28;20062;-61
2022/06/24 10:34:25;;;;;;;5.18;3.63;;;;;;;30.42;31.59;96705.41;4985588;28;20136;-61
2022/06/24 10:37:20;;;;;;;3.65;3.08;;;;;;;30.92;31.51;96737.16;4987033;28;20069;-62
2022/06/24 10:39:49;;;;;;;3.97;3.67;;;;;;;31.04;31.00;96735.13;4985794;28;20061;-61
2022/06/24 10:42:20;;;;;;;3.78;3.53;;;;;;;30.06;31.46;96659.66;4977667;28;20054;-60
2022/06/24 10:45:02;;;;;;;3.65;3.38;;;;;;;28.11;33.85;96391.00;4967907;28;20103;-60
2022/06/24 10:47:35;;;;;;;4.00;3.30;;;;;;;30.21;32.52;96735.38;4967451;28;20054;-60
2022/06/24 10:50:02;;;;;;;7.15;3.25;;;;;;;30.23;32.42;96732.81;4965880;28;20149;-60
2022/06/24 10:52:36;;;;;;;4.03;3.63;;;;;;;30.09;32.34;96653.72;4966880;28;20426;-61
2022/06/24 10:55:16;;;;;;;4.00;3.60;;;;;;;30.50;31.50;96728.56;4965583;28;20145;-65
2022/06/24 10:57:48;;;;;;;3.90;3.60;;;;;;;30.04;32.75;96731.59;4976602;28;20065;-62
2022/06/24 11:00:16;;;;;;;4.73;3.30;;;;;;;30.21;32.29;96741.09;4977394;28;20064;-64
2022/06/24 11:02:44;;;;;;;8.85;3.90;;;;;;;30.22;33.03;96739.03;4985041;28;20135;-60
2022/06/24 11:05:23;;;;;;;4.00;3.20;;;;;;;30.61;32.21;96735.16;4982912;28;20498;-60
2022/06/24 11:07:50;;;;;;;5.80;3.53;;;;;;;30.60;32.09;96704.97;4983129;28;20056;-63
2022/06/24 11:10:23;;;;;;;5.43;3.58;;;;;;;31.01;32.14;96739.03;4984793;28;20062;-67
2022/06/24 11:12:54;;;;;;;4.80;3.30;;;;;;;30.95;32.06;96741.88;4982035;28;20046;-64
2022/06/24 11:15:38;;;;;;;3.97;3.65;;;;;;;30.56;31.85;96720.81;4983511;28;20639;-62
2022/06/24 11:18:10;;;;;;;4.03;3.58;;;;;;;30.71;31.42;96733.63;4982651;28;20125;-64
2022/06/24 11:20:40;;;;;;;4.18;3.65;;;;;;;29.11;32.73;96494.59;4977748;28;20086;-65
2022/06/24 11:23:09;;;;;;;5.05;3.35;;;;;;;30.41;31.66;96738.16;4972379;28;20457;-65
2022/06/24 11:25:39;;;;;;;5.80;3.35;;;;;;;30.03;32.56;96735.75;4983307;28;20061;-62
2022/06/24 11:28:26;;;;;;;4.97;3.22;;;;;;;30.07;32.11;96667.72;4985982;28;20053;-63
2022/06/24 11:30:56;;;;;;;5.05;3.42;;;;;;;30.56;31.12;96681.56;4985679;28;20433;-63
2022/06/24 11:33:23;;;;;;;3.65;3.38;;;;;;;30.16;32.48;96741.81;4984946;28;20058;-62
2022/06/24 11:35:50;;;;;;;4.18;3.63;;;;;;;30.92;31.05;96729.34;4982527;28;20581;-66
2022/06/24 11:38:22;;;;;;;5.82;4.00;;;;;;;31.50;30.94;96758.50;4982521;28;20078;-61
2022/06/24 11:40:50;;;;;;;4.25;3.95;;;;;;;31.03;31.36;96645.63;4985143;28;20117;-64
2022/06/24 11:43:18;;;;;;;3.65;3.40;;;;;;;31.44;31.74;96749.09;4968590;28;20054;-63
2022/06/24 11:45:46;;;;;;;5.68;3.47;;;;;;;30.73;30.66;96713.13;4973264;28;20065;-64
2022/06/24 11:48:24;;;;;;;4.95;3.13;;;;;;;29.14;33.21;96716.13;4983698;28;20058;-66
2022/06/24 11:50:51;;;;;;;4.60;3.28;;;;;;;29.78;32.43;96742.28;4982354;28;20050;-70
2022/06/24 11:53:25;;;;;;;4.07;3.40;;;;;;;30.32;31.52;96746.91;4983627;28;20133;-70
2022/06/24 11:55:54;;;;;;;4.05;3.15;;;;;;;30.39;31.74;96731.34;4983186;28;20132;-65